createdAt,value
2023-01-29T00:01:18.264Z,102223.81
2023-01-29T00:03:44.632Z,102227.41
2023-01-29T00:06:11.828Z,102223.81
2023-01-29T00:08:38.897Z,102224.66
2023-01-29T00:11:07.828Z,102217.53
2023-01-29T00:13:34.853Z,102217.53
2023-01-29T00:16:01.788Z,102218.50
2023-01-29T00:18:29.093Z,102213.19
2023-01-29T00:20:56.145Z,102222.84
2023-01-29T00:23:23.442Z,102218.50
2023-01-29T00:25:49.803Z,102218.50
2023-01-29T00:28:16.158Z,102224.66
2023-01-29T00:30:42.651Z,102219.34
2023-01-29T00:33:08.966Z,102214.88
2023-01-29T00:35:35.295Z,102214.88
2023-01-29T00:38:01.663Z,102224.66
2023-01-29T00:40:28.058Z,102218.44
2023-01-29T00:43:13.071Z,102220.19
2023-01-29T00:45:39.611Z,102224.66
2023-01-29T00:48:06.309Z,102221.94
2023-01-29T00:50:32.789Z,102220.28
2023-01-29T00:52:59.108Z,102215.84
2023-01-29T00:55:25.425Z,102204.28
2023-01-29T00:57:51.786Z,102196.41
2023-01-29T01:00:19.280Z,102186.63
2023-01-29T01:03:04.039Z,102175.16
2023-01-29T01:05:30.378Z,102170.72
2023-01-29T01:07:57.909Z,102174.31
2023-01-29T01:10:33.048Z,102166.41
2023-01-29T01:13:05.093Z,102163.69
2023-01-29T01:15:35.451Z,102162.91
2023-01-29T01:18:02.888Z,102166.47
2023-01-29T01:20:31.553Z,102157.66
2023-01-29T01:22:58.025Z,102152.44
2023-01-29T01:25:26.651Z,102170.16
2023-01-29T01:27:54.378Z,102178.19
2023-01-29T01:30:21.028Z,102176.50
2023-01-29T01:32:47.410Z,102174.69
2023-01-29T01:35:14.774Z,102180.06
2023-01-29T01:37:41.798Z,102174.75
2023-01-29T01:40:18.993Z,102172.09
2023-01-29T01:42:52.540Z,102165.00
2023-01-29T01:45:24.778Z,102157.13
2023-01-29T01:47:56.263Z,102165.94
2023-01-29T01:50:42.589Z,102178.38
2023-01-29T01:53:14.490Z,102174.84
2023-01-29T01:55:55.241Z,102172.19
2023-01-29T01:58:26.556Z,102173.91
2023-01-29T02:00:53.443Z,102188.97
2023-01-29T02:03:41.385Z,102186.31
2023-01-29T02:06:28.816Z,102186.31
2023-01-29T02:09:21.995Z,102188.03
2023-01-29T02:11:48.391Z,102188.97
2023-01-29T02:14:14.746Z,102179.22
2023-01-29T02:16:41.144Z,102190.69
2023-01-29T02:19:34.687Z,102198.66
2023-01-29T02:22:21.581Z,102197.63
2023-01-29T02:25:00.118Z,102194.13
2023-01-29T02:27:57.543Z,102192.25
2023-01-29T02:30:33.552Z,102184.31
2023-01-29T02:33:22.330Z,102181.66
2023-01-29T02:35:58.610Z,102184.31
2023-01-29T02:38:55.502Z,102185.16
2023-01-29T02:41:27.828Z,102192.25
2023-01-29T02:44:20.338Z,102195.84
2023-01-29T02:46:56.399Z,102183.34
2023-01-29T02:49:52.579Z,102193.19
2023-01-29T02:52:25.248Z,102192.25
2023-01-29T02:55:04.715Z,102192.25
2023-01-29T02:57:36.890Z,102198.50
2023-01-29T03:00:16.179Z,102206.44
2023-01-29T03:03:08.768Z,102200.28
2023-01-29T03:05:45.645Z,102194.97
2023-01-29T03:08:18.324Z,102192.31
2023-01-29T03:10:53.890Z,102198.50
2023-01-29T03:13:35.507Z,102188.72
2023-01-29T03:16:14.095Z,102176.41
2023-01-29T03:18:46.236Z,102183.50
2023-01-29T03:21:55.203Z,102176.41
2023-01-29T03:24:50.534Z,102175.47
2023-01-29T03:27:39.159Z,102169.28
2023-01-29T03:30:27.852Z,102160.56
2023-01-29T03:32:56.223Z,102159.63
2023-01-29T03:35:36.435Z,102163.13
2023-01-29T03:38:05.455Z,102163.22
2023-01-29T03:40:43.671Z,102151.66
2023-01-29T03:43:32.932Z,102151.66
2023-01-29T03:46:19.927Z,102148.06
2023-01-29T03:49:18.540Z,102142.69
2023-01-29T03:52:11.024Z,102141.72
2023-01-29T03:54:57.682Z,102137.28
2023-01-29T03:57:39.157Z,102128.41
2023-01-29T04:00:21.244Z,102131.13
2023-01-29T04:02:55.496Z,102124.00
2023-01-29T04:05:27.341Z,102126.66
2023-01-29T04:08:02.443Z,102123.16
2023-01-29T04:10:29.668Z,102131.13
2023-01-29T04:13:04.285Z,102131.97
2023-01-29T04:15:36.404Z,102117.00
2023-01-29T04:18:02.795Z,102114.34
2023-01-29T04:20:29.190Z,102098.41
2023-01-29T04:22:55.884Z,102097.56
2023-01-29T04:25:28.871Z,102102.03
2023-01-29T04:28:08.627Z,102100.22
2023-01-29T04:30:44.873Z,102102.88
2023-01-29T04:33:11.208Z,102102.94
2023-01-29T04:35:40.562Z,102099.34
2023-01-29T04:38:34.205Z,102087.78
2023-01-29T04:41:48.615Z,102087.78
2023-01-29T04:44:26.881Z,102083.28
2023-01-29T04:47:11.398Z,102070.91
2023-01-29T04:49:47.063Z,102077.09
2023-01-29T04:52:13.350Z,102068.13
2023-01-29T04:54:48.317Z,102073.28
2023-01-29T04:57:23.098Z,102066.22
2023-01-29T05:00:00.527Z,102055.78
2023-01-29T05:02:28.296Z,102057.66
2023-01-29T05:04:58.440Z,102055.94
2023-01-29T05:07:28.286Z,102068.44
2023-01-29T05:09:55.931Z,102064.06
2023-01-29T05:12:28.729Z,102075.63
2023-01-29T05:15:00.232Z,102072.97
2023-01-29T05:17:26.802Z,102072.09
2023-01-29T05:19:54.909Z,102078.28
2023-01-29T05:22:23.145Z,102084.34
2023-01-29T05:24:50.560Z,102082.66
2023-01-29T05:27:42.673Z,102083.44
2023-01-29T05:30:10.326Z,102081.69
2023-01-29T05:32:36.724Z,102073.75
2023-01-29T05:35:03.214Z,102079.84
2023-01-29T05:37:29.532Z,102076.31
2023-01-29T05:39:55.879Z,102078.03
2023-01-29T05:42:22.258Z,102079.75
2023-01-29T05:44:48.596Z,102080.63
2023-01-29T05:47:19.236Z,102085.81
2023-01-29T05:52:20.541Z,102084.06
2023-01-29T05:54:46.961Z,102077.88
2023-01-29T05:57:14.732Z,102072.50
2023-01-29T05:59:41.076Z,102080.44
2023-01-29T06:02:07.432Z,102078.66
2023-01-29T06:04:33.936Z,102068.03
2023-01-29T06:07:03.259Z,102071.53
2023-01-29T06:09:29.576Z,102072.50
2023-01-29T06:11:55.965Z,102078.66
2023-01-29T06:14:22.336Z,102079.50
2023-01-29T06:16:48.682Z,102083.97
2023-01-29T06:19:15.313Z,102092.78
2023-01-29T06:21:41.639Z,102079.50
2023-01-29T06:24:08.627Z,102086.63
2023-01-29T06:26:35.117Z,102095.44
2023-01-29T06:29:01.560Z,102087.47
2023-01-29T06:31:38.188Z,102087.47
2023-01-29T06:34:05.695Z,102091.84
2023-01-29T06:36:32.235Z,102092.78
2023-01-29T06:38:58.763Z,102077.78
2023-01-29T06:41:25.553Z,102080.44
2023-01-29T06:43:52.462Z,102093.72
2023-01-29T06:46:18.843Z,102095.53
2023-01-29T06:48:45.209Z,102092.03
2023-01-29T06:51:11.849Z,102081.31
2023-01-29T06:53:39.542Z,102078.66
2023-01-29T06:56:06.760Z,102075.94
2023-01-29T06:58:33.611Z,102067.97
2023-01-29T07:01:34.591Z,102068.75
2023-01-29T07:04:02.876Z,102082.03
2023-01-29T07:06:29.478Z,102086.44
2023-01-29T07:08:56.692Z,102085.59
2023-01-29T07:11:23.172Z,102079.44
2023-01-29T07:13:49.603Z,102078.59
2023-01-29T07:16:16.045Z,102075.94
2023-01-29T07:18:42.454Z,102080.28
2023-01-29T07:21:08.814Z,102085.59
2023-01-29T07:23:35.328Z,102074.97
2023-01-29T07:26:06.304Z,102074.06
2023-01-29T07:28:40.916Z,102072.25
2023-01-29T07:31:08.000Z,102067.00
2023-01-29T07:33:34.678Z,102058.13
2023-01-29T07:36:01.161Z,102056.31
2023-01-29T07:38:27.685Z,102056.31
2023-01-29T07:40:54.333Z,102062.50
2023-01-29T07:43:20.877Z,102064.19
2023-01-29T07:45:47.403Z,102063.28
2023-01-29T07:48:13.927Z,102059.66
2023-01-29T07:50:41.395Z,102063.16
2023-01-29T07:53:12.301Z,102058.72
2023-01-29T07:55:38.731Z,102062.25
2023-01-29T07:58:05.181Z,102060.44
2023-01-29T08:00:31.760Z,102046.22
2023-01-29T08:03:11.966Z,102052.38
2023-01-29T08:05:38.343Z,102037.41
2023-01-29T08:08:07.346Z,102039.09
2023-01-29T08:10:38.344Z,102043.50
2023-01-29T08:13:05.439Z,102041.75
2023-01-29T08:15:33.054Z,102027.56
2023-01-29T08:18:01.484Z,102011.63
2023-01-29T08:20:28.458Z,101996.63
2023-01-29T08:23:06.261Z,101992.09
2023-01-29T08:25:32.877Z,101977.00
2023-01-29T08:28:00.543Z,101982.31
2023-01-29T08:30:30.483Z,101984.97
2023-01-29T08:32:56.835Z,101988.59
2023-01-29T08:35:23.990Z,102010.63
2023-01-29T08:37:59.366Z,102009.66
2023-01-29T08:40:27.332Z,102003.44
2023-01-29T08:43:00.367Z,102006.84
2023-01-29T08:45:27.951Z,102008.56
2023-01-29T08:47:54.278Z,101996.06
2023-01-29T08:50:20.843Z,101983.66
2023-01-29T08:52:47.216Z,101979.19
2023-01-29T08:55:14.083Z,101986.19
2023-01-29T08:57:40.652Z,101997.72
2023-01-29T09:00:10.282Z,102002.06
2023-01-29T09:02:37.510Z,101987.81
2023-01-29T09:05:04.076Z,101983.38
2023-01-29T09:07:30.377Z,101978.84
2023-01-29T09:09:56.735Z,101979.63
2023-01-29T09:12:23.115Z,101969.78
2023-01-29T09:14:49.412Z,101980.22
2023-01-29T09:17:15.767Z,101977.38
2023-01-29T09:19:42.112Z,101984.34
2023-01-29T09:22:10.353Z,101987.66
2023-01-29T09:24:37.326Z,102011.44
2023-01-29T09:27:05.044Z,102007.66
2023-01-29T09:29:32.299Z,102012.88
2023-01-29T09:31:59.977Z,102001.13
2023-01-29T09:34:26.338Z,101999.19
2023-01-29T09:36:52.790Z,102002.56
2023-01-29T09:39:19.134Z,101999.78
2023-01-29T09:42:07.711Z,101999.50
2023-01-29T09:45:02.516Z,102003.72
2023-01-29T09:47:31.863Z,102007.03
2023-01-29T09:50:05.698Z,101992.72
2023-01-29T09:52:38.743Z,101984.56
2023-01-29T09:55:26.157Z,101979.09
2023-01-29T09:58:01.067Z,101969.19
2023-01-29T10:00:30.287Z,101965.50
2023-01-29T10:03:15.517Z,101958.31
2023-01-29T10:06:03.530Z,101947.50
2023-01-29T10:08:58.814Z,101954.34
2023-01-29T10:12:11.013Z,101948.66
2023-01-29T10:14:49.722Z,101958.09
2023-01-29T10:17:36.304Z,101944.53
2023-01-29T10:20:36.649Z,101953.16
2023-01-29T10:23:18.135Z,101948.53
2023-01-29T10:25:47.200Z,101951.97
2023-01-29T10:28:29.339Z,101942.06
2023-01-29T10:31:01.923Z,101934.84
2023-01-29T10:34:01.975Z,101935.56
2023-01-29T10:36:36.842Z,101931.06
2023-01-29T10:39:03.256Z,101926.69
2023-01-29T10:41:49.592Z,101921.38
2023-01-29T10:44:40.185Z,101912.53
2023-01-29T10:47:20.011Z,101905.50
2023-01-29T10:50:01.798Z,101901.03
2023-01-29T10:52:50.928Z,101896.56
2023-01-29T10:55:36.356Z,101894.69
2023-01-29T10:58:15.256Z,101890.03
2023-01-29T11:00:42.189Z,101897.91
2023-01-29T11:03:33.455Z,101884.50
2023-01-29T11:06:23.540Z,101886.22
2023-01-29T11:08:56.101Z,101887.94
2023-01-29T11:11:32.980Z,101887.84
2023-01-29T11:14:07.170Z,101885.28
2023-01-29T11:16:42.326Z,101872.81
2023-01-29T11:19:08.870Z,101871.13
2023-01-29T11:21:58.970Z,101865.81
2023-01-29T11:24:26.597Z,101857.75
2023-01-29T11:26:57.076Z,101854.13
2023-01-29T11:29:38.181Z,101848.78
2023-01-29T11:32:08.082Z,101855.81
2023-01-29T11:34:34.493Z,101847.81
2023-01-29T11:37:15.026Z,101848.72
2023-01-29T11:39:47.096Z,101842.44
2023-01-29T11:42:22.564Z,101837.03
2023-01-29T11:44:49.637Z,101829.03
2023-01-29T11:47:15.954Z,101818.41
2023-01-29T11:50:02.193Z,101818.41
2023-01-29T11:52:40.771Z,101811.16
2023-01-29T11:55:16.446Z,101812.00
2023-01-29T11:57:48.486Z,101809.44
2023-01-29T12:00:23.540Z,101807.75
2023-01-29T12:02:54.255Z,101798.81
2023-01-29T12:05:26.287Z,101800.63
2023-01-29T12:08:01.278Z,101793.56
2023-01-29T12:10:36.818Z,101790.06
2023-01-29T12:13:20.098Z,101791.88
2023-01-29T12:15:48.096Z,101783.97
2023-01-29T12:18:35.456Z,101780.38
2023-01-29T12:21:04.775Z,101781.31
2023-01-29T12:24:16.247Z,101780.47
2023-01-29T12:26:51.077Z,101765.34
2023-01-29T12:29:39.431Z,101765.34
2023-01-29T12:32:14.975Z,101767.06
2023-01-29T12:34:53.129Z,101752.91
2023-01-29T12:37:42.200Z,101747.59
2023-01-29T12:40:13.844Z,101742.28
2023-01-29T12:42:44.483Z,101738.72
2023-01-29T12:45:18.629Z,101737.03
2023-01-29T12:47:52.229Z,101731.72
2023-01-29T12:50:27.502Z,101728.22
2023-01-29T12:52:58.351Z,101729.91
2023-01-29T12:55:29.384Z,101730.75
2023-01-29T12:58:12.800Z,101727.16
2023-01-29T13:00:44.800Z,101717.38
2023-01-29T13:03:17.258Z,101710.22
2023-01-29T13:05:46.296Z,101711.06
2023-01-29T13:08:29.113Z,101698.66
2023-01-29T13:10:58.460Z,101691.53
2023-01-29T13:13:36.789Z,101689.69
2023-01-29T13:16:07.349Z,101680.75
2023-01-29T13:18:40.800Z,101682.56
2023-01-29T13:21:14.180Z,101678.09
2023-01-29T13:23:47.241Z,101672.78
2023-01-29T13:26:18.783Z,101672.78
2023-01-29T13:28:46.115Z,101670.13
2023-01-29T13:31:40.868Z,101662.88
2023-01-29T13:34:24.955Z,101662.97
2023-01-29T13:36:57.324Z,101667.44
2023-01-29T13:39:28.843Z,101655.97
2023-01-29T13:41:56.923Z,101659.59
2023-01-29T13:44:37.749Z,101661.28
2023-01-29T13:47:20.208Z,101650.63
2023-01-29T13:50:07.842Z,101649.66
2023-01-29T13:52:56.450Z,101651.47
2023-01-29T13:55:31.304Z,101646.16
2023-01-29T13:58:21.221Z,101647.13
2023-01-29T14:00:49.103Z,101651.47
2023-01-29T14:03:15.425Z,101644.47
2023-01-29T14:06:00.678Z,101625.84
2023-01-29T14:08:37.717Z,101633.81
2023-01-29T14:11:13.032Z,101637.44
2023-01-29T14:13:39.747Z,101631.25
2023-01-29T14:16:28.531Z,101619.88
2023-01-29T14:19:02.006Z,101631.38
2023-01-29T14:21:32.478Z,101631.47
2023-01-29T14:24:09.636Z,101625.28
2023-01-29T14:26:38.757Z,101627.94
2023-01-29T14:29:33.891Z,101634.13
2023-01-29T14:32:13.169Z,101636.69
2023-01-29T14:34:47.781Z,101630.41
2023-01-29T14:37:18.676Z,101623.38
2023-01-29T14:40:11.539Z,101622.53
2023-01-29T14:42:44.129Z,101612.94
2023-01-29T14:45:22.529Z,101616.75
2023-01-29T14:47:48.829Z,101625.69
2023-01-29T14:50:33.501Z,101611.66
2023-01-29T14:53:09.093Z,101613.53
2023-01-29T14:55:41.793Z,101612.56
2023-01-29T14:58:18.342Z,101620.69
2023-01-29T15:00:50.355Z,101620.75
2023-01-29T15:03:28.256Z,101607.59
2023-01-29T15:05:55.815Z,101605.84
2023-01-29T15:08:38.139Z,101607.66
2023-01-29T15:11:36.034Z,101607.78
2023-01-29T15:14:14.428Z,101606.91
2023-01-29T15:17:07.890Z,101607.88
2023-01-29T15:19:34.202Z,101606.28
2023-01-29T15:22:13.140Z,101604.44
2023-01-29T15:24:41.786Z,101602.00
2023-01-29T15:27:14.397Z,101601.16
2023-01-29T15:29:43.068Z,101602.22
2023-01-29T15:32:16.799Z,101596.03
2023-01-29T15:34:44.177Z,101592.50
2023-01-29T15:37:30.856Z,101588.16
2023-01-29T15:39:57.489Z,101585.59
2023-01-29T15:42:25.783Z,101570.69
2023-01-29T15:44:56.127Z,101582.28
2023-01-29T15:47:31.076Z,101565.56
2023-01-29T15:49:57.906Z,101555.13
2023-01-29T15:52:28.694Z,101563.22
2023-01-29T15:54:57.823Z,101553.63
2023-01-29T15:57:37.246Z,101544.91
2023-01-29T16:00:05.564Z,101539.78
2023-01-29T16:02:34.998Z,101532.75
2023-01-29T16:05:02.470Z,101529.38
2023-01-29T16:07:30.063Z,101533.78
2023-01-29T16:09:57.419Z,101536.56
2023-01-29T16:12:24.334Z,101521.56
2023-01-29T16:14:51.699Z,101525.09
2023-01-29T16:17:35.454Z,101511.03
2023-01-29T16:20:07.515Z,101515.50
2023-01-29T16:22:36.973Z,101512.09
2023-01-29T16:25:14.503Z,101519.31
2023-01-29T16:27:43.931Z,101516.66
2023-01-29T16:30:16.209Z,101527.38
2023-01-29T16:32:42.899Z,101510.56
2023-01-29T16:35:15.707Z,101512.38
2023-01-29T16:37:46.633Z,101515.91
2023-01-29T16:40:26.929Z,101522.06
2023-01-29T16:43:41.910Z,101515.03
2023-01-29T16:46:20.700Z,101508.03
2023-01-29T16:48:47.799Z,101506.31
2023-01-29T16:51:22.395Z,101500.16
2023-01-29T16:54:00.984Z,101498.47
2023-01-29T16:56:30.914Z,101501.13
2023-01-29T16:58:58.212Z,101495.81
2023-01-29T17:01:28.407Z,101493.13
2023-01-29T17:04:07.547Z,101496.72
2023-01-29T17:06:34.862Z,101497.63
2023-01-29T17:09:02.479Z,101493.13
2023-01-29T17:11:38.423Z,101476.34
2023-01-29T17:14:07.294Z,101474.53
2023-01-29T17:16:50.298Z,101482.50
2023-01-29T17:19:20.671Z,101473.69
2023-01-29T17:21:47.706Z,101469.31
2023-01-29T17:24:14.207Z,101471.13
2023-01-29T17:26:41.126Z,101473.78
2023-01-29T17:29:13.857Z,101479.84
2023-01-29T17:31:40.643Z,101469.22
2023-01-29T17:34:14.929Z,101457.63
2023-01-29T17:36:45.182Z,101455.81
2023-01-29T17:39:17.090Z,101445.19
2023-01-29T17:41:47.520Z,101441.59
2023-01-29T17:44:13.980Z,101432.75
2023-01-29T17:46:40.315Z,101442.53
2023-01-29T17:49:26.558Z,101436.28
2023-01-29T17:51:53.565Z,101436.91
2023-01-29T17:54:20.208Z,101426.38
2023-01-29T17:56:47.259Z,101416.63
2023-01-29T17:59:16.023Z,101421.19
2023-01-29T18:01:42.559Z,101422.09
2023-01-29T18:04:09.432Z,101415.09
2023-01-29T18:06:36.561Z,101411.59
2023-01-29T18:09:03.608Z,101403.63
2023-01-29T18:11:30.628Z,101411.59
2023-01-29T18:13:57.400Z,101403.63
2023-01-29T18:16:24.767Z,101396.50
2023-01-29T18:18:52.385Z,101386.72
2023-01-29T18:21:18.924Z,101392.88
2023-01-29T18:23:45.387Z,101385.88
2023-01-29T18:26:12.804Z,101384.91
2023-01-29T18:28:39.188Z,101390.22
2023-01-29T18:31:05.933Z,101375.16
2023-01-29T18:33:34.287Z,101365.38
2023-01-29T18:36:00.776Z,101374.28
2023-01-29T18:38:27.474Z,101366.28
2023-01-29T18:40:53.923Z,101372.50
2023-01-29T18:43:20.268Z,101370.69
2023-01-29T18:45:46.678Z,101365.38
2023-01-29T18:48:14.127Z,101365.38
2023-01-29T18:50:40.460Z,101366.22
2023-01-29T18:53:07.596Z,101359.09
2023-01-29T18:55:34.090Z,101345.78
2023-01-29T18:58:27.495Z,101326.34
2023-01-29T19:00:46.904Z,101324.53
2023-01-29T19:03:13.392Z,101326.34
2023-01-29T19:05:39.839Z,101322.84
2023-01-29T19:08:06.388Z,101328.25
2023-01-29T19:10:33.134Z,101319.44
2023-01-29T19:12:59.547Z,101310.59
2023-01-29T19:15:26.094Z,101307.09
2023-01-29T19:17:52.777Z,101301.78
2023-01-29T19:20:19.291Z,101288.50
2023-01-29T19:22:45.792Z,101294.75
2023-01-29T19:25:12.730Z,101288.59
2023-01-29T19:27:39.192Z,101290.31
2023-01-29T19:30:06.058Z,101300.94
2023-01-29T19:32:32.905Z,101293.91
2023-01-29T19:34:59.306Z,101287.75
2023-01-29T19:37:25.811Z,101276.28
2023-01-29T19:39:53.511Z,101271.91
2023-01-29T19:42:20.799Z,101259.50
2023-01-29T19:44:47.384Z,101265.75
2023-01-29T19:47:13.821Z,101252.44
2023-01-29T19:49:40.493Z,101246.28
2023-01-29T19:52:14.738Z,101240.97
2023-01-29T19:54:45.998Z,101240.97
2023-01-29T19:57:12.406Z,101232.03
2023-01-29T19:59:38.837Z,101230.34
2023-01-29T20:02:05.546Z,101217.91
2023-01-29T20:04:32.330Z,101208.13
2023-01-29T20:06:59.555Z,101219.72
2023-01-29T20:09:25.892Z,101215.25
2023-01-29T20:11:52.222Z,101209.94
2023-01-29T20:14:18.584Z,101211.75
2023-01-29T20:16:44.973Z,101207.41
2023-01-29T20:19:13.315Z,101205.59
2023-01-29T20:21:41.799Z,101204.63
2023-01-29T20:24:12.258Z,101202.72
2023-01-29T20:26:38.932Z,101200.06
2023-01-29T20:29:05.640Z,101201.75
2023-01-29T20:31:32.014Z,101181.22
2023-01-29T20:33:58.418Z,101177.59
2023-01-29T20:36:24.735Z,101184.63
2023-01-29T20:38:51.183Z,101183.66
2023-01-29T20:41:19.272Z,101189.75
2023-01-29T20:43:46.908Z,101186.97
2023-01-29T20:46:13.959Z,101196.56
2023-01-29T20:48:41.866Z,101204.41
2023-01-29T20:51:12.989Z,101192.69
2023-01-29T20:53:40.966Z,101176.53
2023-01-29T20:56:08.401Z,101176.44
2023-01-29T20:58:36.008Z,101163.88
2023-01-29T21:01:17.268Z,101158.34
2023-01-29T21:03:44.555Z,101153.03
2023-01-29T21:06:11.330Z,101157.28
2023-01-29T21:08:38.216Z,101153.66
2023-01-29T21:11:06.265Z,101152.72
2023-01-29T21:13:33.065Z,101156.97
2023-01-29T21:15:59.830Z,101157.06
2023-01-29T21:18:26.376Z,101157.81
2023-01-29T21:20:53.576Z,101160.22
2023-01-29T21:23:20.402Z,101171.84
2023-01-29T21:25:46.759Z,101176.94
2023-01-29T21:28:13.067Z,101164.34
2023-01-29T21:30:39.583Z,101165.09
2023-01-29T21:33:06.076Z,101158.84
2023-01-29T21:35:32.480Z,101144.56
2023-01-29T21:37:58.895Z,101124.88
2023-01-29T21:40:29.731Z,101118.72
2023-01-29T21:43:16.044Z,101140.75
2023-01-29T21:45:43.036Z,101149.56
2023-01-29T21:48:11.248Z,101139.69
2023-01-29T21:50:38.821Z,101137.00
2023-01-29T21:53:05.142Z,101143.91
2023-01-29T21:55:32.445Z,101151.66
2023-01-29T21:58:00.419Z,101156.03
2023-01-29T22:00:27.223Z,101138.97
2023-01-29T22:02:53.673Z,101133.56
2023-01-29T22:05:20.534Z,101139.59
2023-01-29T22:07:48.330Z,101129.69
2023-01-29T22:10:16.841Z,101136.59
2023-01-29T22:12:44.589Z,101150.66
2023-01-29T22:15:13.011Z,101142.56
2023-01-29T22:17:41.355Z,101145.94
2023-01-29T22:20:12.418Z,101125.31
2023-01-29T22:22:39.120Z,101127.00
2023-01-29T22:25:06.274Z,101116.94
2023-01-29T22:27:33.628Z,101100.03
2023-01-29T22:30:00.096Z,101089.25
2023-01-29T22:32:26.722Z,101084.81
2023-01-29T22:34:53.143Z,101082.03
2023-01-29T22:37:19.588Z,101083.59
2023-01-29T22:39:45.906Z,101061.38
2023-01-29T22:42:12.352Z,101056.75
2023-01-29T22:44:38.769Z,101029.19
2023-01-29T22:47:05.199Z,101002.44
2023-01-29T22:49:32.167Z,100968.69
2023-01-29T22:52:16.290Z,100958.78
2023-01-29T22:54:43.608Z,100958.78
2023-01-29T22:57:12.377Z,100948.97
2023-01-29T22:59:39.098Z,100947.19
2023-01-29T23:02:06.648Z,100958.66
2023-01-29T23:04:33.181Z,100954.19
2023-01-29T23:06:59.575Z,100942.69
2023-01-29T23:09:26.062Z,100955.88
2023-01-29T23:11:52.415Z,100969.06
2023-01-29T23:14:18.884Z,100991.22
2023-01-29T23:16:45.366Z,100931.69
2023-01-29T23:19:12.217Z,100934.13
2023-01-29T23:21:39.449Z,100937.50
2023-01-29T23:24:07.139Z,100948.88
2023-01-29T23:26:51.887Z,100925.63
2023-01-29T23:29:18.324Z,100929.03
2023-01-29T23:31:44.791Z,100916.47
2023-01-29T23:34:11.358Z,100879.88
2023-01-29T23:36:37.851Z,100861.97
2023-01-29T23:39:04.513Z,100881.34
2023-01-29T23:41:30.824Z,100883.91
2023-01-29T23:43:57.376Z,100879.41
2023-01-29T23:46:23.784Z,100882.84
2023-01-29T23:48:50.125Z,100891.53
2023-01-29T23:51:16.839Z,100877.25
2023-01-29T23:53:43.240Z,100881.50
2023-01-29T23:56:10.388Z,100888.50
2023-01-29T23:58:36.776Z,100909.69
